createdAt,value
2023-05-18T00:02:27.391Z,31.77
2023-05-18T00:05:18.493Z,25.33
2023-05-18T00:08:10.130Z,27.52
2023-05-18T00:10:58.830Z,26.83
2023-05-18T00:13:46.082Z,28.85
2023-05-18T00:16:33.710Z,21.77
2023-05-18T00:19:24.692Z,22.70
2023-05-18T00:22:20.711Z,20.05
2023-05-18T00:25:09.834Z,22.85
2023-05-18T00:27:59.626Z,24.00
2023-05-18T00:30:46.927Z,23.58
2023-05-18T00:33:35.538Z,24.70
2023-05-18T00:36:22.971Z,22.55
2023-05-18T00:39:15.313Z,30.35
2023-05-18T00:42:05.286Z,23.17
2023-05-18T00:44:52.777Z,23.73
2023-05-18T00:47:41.038Z,24.08
2023-05-18T00:50:28.459Z,25.23
2023-05-18T00:53:16.096Z,24.00
2023-05-18T00:56:04.441Z,24.38
2023-05-18T00:58:57.822Z,31.58
2023-05-18T01:01:49.113Z,23.15
2023-05-18T01:04:38.172Z,27.80
2023-05-18T01:07:26.962Z,23.95
2023-05-18T01:10:21.066Z,34.35
2023-05-18T01:16:37.592Z,25.50
2023-05-18T01:19:50.754Z,22.25
2023-05-18T01:22:54.324Z,26.45
2023-05-18T01:26:15.468Z,25.20
2023-05-18T01:29:10.270Z,23.48
2023-05-18T01:31:59.872Z,29.85
2023-05-18T01:34:50.538Z,28.55
2023-05-18T01:37:38.350Z,24.40
2023-05-18T01:40:28.013Z,31.92
2023-05-18T01:43:22.983Z,30.90
2023-05-18T01:46:55.267Z,29.38
2023-05-18T01:49:59.637Z,31.60
2023-05-18T01:52:54.009Z,32.42
2023-05-18T01:55:42.531Z,35.97
2023-05-18T01:58:33.156Z,40.67
2023-05-18T02:04:27.972Z,33.75
2023-05-18T02:07:15.336Z,37.22
2023-05-18T02:10:02.613Z,34.38
2023-05-18T02:12:55.769Z,34.55
2023-05-18T02:15:47.935Z,34.50
2023-05-18T02:18:36.748Z,32.85
2023-05-18T02:21:24.008Z,31.55
2023-05-18T02:24:12.715Z,29.65
2023-05-18T02:26:59.965Z,36.25
2023-05-18T02:29:47.374Z,31.83
2023-05-18T02:32:39.696Z,33.35
2023-05-18T02:35:27.227Z,34.28
2023-05-18T02:38:18.972Z,33.55
2023-05-18T02:41:12.237Z,22.37
2023-05-18T02:44:44.095Z,41.28
2023-05-18T02:47:32.788Z,39.58
2023-05-18T02:50:20.315Z,40.15
2023-05-18T02:53:07.771Z,34.78
2023-05-18T02:56:03.479Z,42.95
2023-05-18T02:58:51.671Z,35.75
2023-05-18T03:01:41.331Z,38.85
2023-05-18T03:04:29.857Z,48.72
2023-05-18T03:07:17.065Z,40.88
2023-05-18T03:10:08.317Z,32.22
2023-05-18T03:12:56.560Z,34.40
2023-05-18T03:15:46.354Z,42.00
2023-05-18T03:18:33.751Z,45.47
2023-05-18T03:21:23.709Z,38.30
2023-05-18T03:24:15.745Z,43.20
2023-05-18T03:27:04.350Z,34.78
2023-05-18T03:29:56.453Z,33.67
2023-05-18T03:32:47.534Z,32.55
2023-05-18T03:35:35.007Z,38.45
2023-05-18T03:38:22.554Z,33.30
2023-05-18T03:41:10.453Z,31.65
2023-05-18T03:43:58.471Z,38.85
2023-05-18T03:46:49.176Z,38.67
2023-05-18T03:49:39.544Z,40.17
2023-05-18T03:52:27.252Z,39.55
2023-05-18T03:55:15.098Z,40.80
2023-05-18T03:58:05.137Z,36.40
2023-05-18T04:05:01.217Z,32.85
2023-05-18T04:07:48.672Z,36.13
2023-05-18T04:10:42.601Z,46.22
2023-05-18T04:13:30.078Z,37.20
2023-05-18T04:16:20.085Z,39.67
2023-05-18T04:19:12.502Z,41.42
2023-05-18T04:22:05.167Z,41.72
2023-05-18T04:24:55.217Z,42.63
2023-05-18T04:27:51.235Z,45.03
2023-05-18T04:30:42.003Z,34.92
2023-05-18T04:33:40.348Z,31.60
2023-05-18T04:36:33.466Z,38.65
2023-05-18T04:39:23.636Z,31.02
2023-05-18T04:42:15.448Z,33.15
2023-05-18T04:45:08.132Z,32.53
2023-05-18T04:50:46.652Z,37.38
2023-05-18T04:53:39.151Z,39.05
2023-05-18T04:56:26.488Z,38.35
2023-05-18T04:59:17.134Z,33.38
2023-05-18T05:02:06.456Z,33.58
2023-05-18T05:04:53.892Z,27.42
2023-05-18T05:07:41.407Z,26.08
2023-05-18T05:13:49.129Z,31.23
2023-05-18T05:16:37.818Z,32.83
2023-05-18T05:19:25.208Z,19.83
2023-05-18T05:22:12.758Z,19.73
2023-05-18T05:25:00.044Z,30.70
2023-05-18T05:27:48.870Z,21.45
2023-05-18T05:30:37.462Z,26.13
2023-05-18T05:33:27.081Z,21.50
2023-05-18T05:36:14.579Z,18.42
2023-05-18T05:39:04.775Z,21.42
2023-05-18T05:41:54.907Z,19.83
2023-05-18T05:44:44.965Z,19.45
2023-05-18T05:47:32.407Z,16.55
2023-05-18T05:50:20.934Z,20.92
2023-05-18T05:53:10.731Z,21.48
2023-05-18T05:56:00.845Z,15.45
2023-05-18T05:58:49.650Z,21.63
2023-05-18T06:01:40.057Z,16.50
2023-05-18T06:04:27.815Z,18.75
2023-05-18T06:07:18.840Z,14.32
2023-05-18T06:10:06.882Z,16.35
2023-05-18T06:12:54.242Z,18.42
2023-05-18T06:15:43.854Z,18.17
2023-05-18T06:18:32.912Z,23.02
2023-05-18T06:21:23.085Z,12.15
2023-05-18T06:24:11.956Z,14.65
2023-05-18T06:26:59.656Z,17.27
2023-05-18T06:29:49.658Z,17.33
2023-05-18T06:32:37.887Z,13.50
2023-05-18T06:35:27.502Z,12.18
2023-05-18T06:38:17.403Z,16.92
2023-05-18T06:41:07.323Z,10.77
2023-05-18T06:43:56.936Z,13.27
2023-05-18T06:46:44.376Z,11.95
2023-05-18T06:49:32.178Z,17.92
2023-05-18T06:52:19.831Z,8.10
2023-05-18T06:55:11.249Z,16.00
2023-05-18T06:57:59.932Z,12.73
2023-05-18T07:00:48.643Z,13.13
2023-05-18T07:03:36.660Z,15.63
2023-05-18T07:06:24.207Z,16.63
2023-05-18T07:09:15.067Z,17.42
2023-05-18T07:12:02.389Z,13.27
2023-05-18T07:15:02.219Z,13.52
2023-05-18T07:17:49.627Z,11.95
2023-05-18T07:20:37.123Z,11.32
2023-05-18T07:23:24.643Z,11.75
2023-05-18T07:26:15.978Z,13.10
2023-05-18T07:29:03.529Z,10.38
2023-05-18T07:31:51.905Z,14.63
2023-05-18T07:34:39.313Z,11.20
2023-05-18T07:37:28.210Z,15.45
2023-05-18T07:40:15.761Z,10.07
2023-05-18T07:43:03.400Z,12.43
2023-05-18T07:45:52.240Z,8.55
2023-05-18T07:48:40.939Z,13.20
2023-05-18T07:51:29.942Z,13.57
2023-05-18T07:54:17.259Z,13.55
2023-05-18T07:57:04.849Z,10.63
2023-05-18T07:59:53.510Z,11.10
2023-05-18T08:02:40.943Z,13.07
2023-05-18T08:05:30.915Z,10.02
2023-05-18T08:08:20.940Z,12.02
2023-05-18T08:11:10.515Z,11.65
2023-05-18T08:13:57.846Z,11.27
2023-05-18T08:16:47.998Z,12.55
2023-05-18T08:19:35.338Z,10.02
2023-05-18T08:22:25.620Z,10.23
2023-05-18T08:25:13.902Z,10.82
2023-05-18T08:28:02.698Z,12.18
2023-05-18T08:30:52.620Z,10.70
2023-05-18T08:33:39.862Z,9.98
2023-05-18T08:36:29.465Z,10.68
2023-05-18T08:39:16.721Z,7.97
2023-05-18T08:42:31.910Z,9.35
2023-05-18T08:45:52.831Z,10.02
2023-05-18T08:48:48.649Z,8.85
2023-05-18T08:51:47.721Z,9.93
2023-05-18T08:54:37.999Z,11.25
2023-05-18T08:57:26.798Z,12.05
2023-05-18T09:00:15.294Z,10.20
2023-05-18T09:03:05.975Z,17.27
2023-05-18T09:05:56.189Z,10.43
2023-05-18T09:08:44.361Z,14.13
2023-05-18T09:11:33.804Z,11.93
2023-05-18T09:14:26.216Z,7.97
2023-05-18T09:17:33.944Z,10.23
2023-05-18T09:20:28.973Z,7.43
2023-05-18T09:23:18.352Z,10.20
2023-05-18T09:26:12.048Z,10.35
2023-05-18T09:29:00.188Z,14.27
2023-05-18T09:31:51.808Z,13.77
2023-05-18T09:34:46.194Z,9.27
2023-05-18T09:37:37.888Z,10.23
2023-05-18T09:40:30.312Z,9.23
2023-05-18T09:43:21.739Z,7.82
2023-05-18T09:46:10.191Z,10.27
2023-05-18T09:49:00.059Z,13.52
2023-05-18T09:51:49.760Z,9.40
2023-05-18T09:54:38.204Z,12.07
2023-05-18T09:57:30.312Z,10.80
2023-05-18T10:00:27.275Z,12.45
2023-05-18T10:03:25.567Z,11.98
2023-05-18T10:06:13.438Z,8.35
2023-05-18T10:09:04.978Z,11.55
2023-05-18T10:11:53.972Z,12.02
2023-05-18T10:14:44.164Z,12.68
2023-05-18T10:17:34.490Z,9.13
2023-05-18T10:20:24.919Z,5.93
2023-05-18T10:23:12.865Z,13.23
2023-05-18T10:26:06.470Z,10.45
2023-05-18T10:28:56.622Z,7.45
2023-05-18T10:34:53.103Z,10.27
2023-05-18T10:37:50.338Z,13.43
2023-05-18T10:40:40.117Z,12.77
2023-05-18T10:43:28.577Z,9.55
2023-05-18T10:46:17.500Z,8.77
2023-05-18T10:49:12.368Z,9.35
2023-05-18T10:52:03.321Z,8.10
2023-05-18T10:54:50.695Z,8.10
2023-05-18T10:57:45.793Z,9.50
2023-05-18T11:00:40.518Z,10.98
2023-05-18T11:03:32.324Z,10.95
2023-05-18T11:06:28.647Z,10.52
2023-05-18T11:09:28.756Z,13.40
2023-05-18T11:12:21.664Z,8.77
2023-05-18T11:15:09.578Z,10.25
2023-05-18T11:18:14.960Z,9.40
2023-05-18T11:21:21.154Z,9.90
2023-05-18T11:24:31.506Z,6.75
2023-05-18T11:27:24.345Z,10.52
2023-05-18T11:30:34.585Z,7.85
2023-05-18T11:33:25.260Z,6.82
2023-05-18T11:36:28.999Z,9.90
2023-05-18T11:39:27.577Z,8.05
2023-05-18T11:42:35.613Z,12.20
2023-05-18T11:45:25.757Z,9.82
2023-05-18T11:48:13.506Z,9.68
2023-05-18T11:51:08.107Z,6.00
2023-05-18T11:53:57.606Z,8.70
2023-05-18T11:56:52.586Z,11.32
2023-05-18T11:59:45.168Z,8.90
2023-05-18T12:02:34.065Z,8.98
2023-05-18T12:05:21.897Z,10.40
2023-05-18T12:08:09.790Z,11.90
2023-05-18T12:11:02.811Z,14.60
2023-05-18T12:13:57.751Z,9.02
2023-05-18T12:16:49.008Z,9.88
2023-05-18T12:19:45.854Z,8.25
2023-05-18T12:22:35.797Z,8.70
2023-05-18T12:25:28.133Z,6.88
2023-05-18T12:31:08.528Z,5.40
2023-05-18T12:33:58.892Z,8.32
2023-05-18T12:36:58.241Z,6.07
2023-05-18T12:39:46.462Z,7.30
2023-05-18T12:42:36.095Z,13.27
2023-05-18T12:45:32.327Z,8.55
2023-05-18T12:48:21.077Z,7.40
2023-05-18T12:51:20.496Z,10.25
2023-05-18T12:54:11.836Z,6.32
2023-05-18T12:57:02.601Z,7.97
2023-05-18T12:59:53.358Z,6.72
2023-05-18T13:02:42.854Z,7.75
2023-05-18T13:05:31.049Z,10.45
2023-05-18T13:11:27.813Z,5.70
2023-05-18T13:14:17.974Z,8.15
2023-05-18T13:17:05.681Z,7.45
2023-05-18T13:19:59.629Z,12.65
2023-05-18T13:22:49.451Z,10.90
2023-05-18T13:25:36.959Z,6.75
2023-05-18T13:28:25.653Z,6.05
2023-05-18T13:31:13.083Z,9.43
2023-05-18T13:34:00.736Z,6.85
2023-05-18T13:37:16.858Z,9.25
2023-05-18T13:40:08.560Z,10.20
2023-05-18T13:42:56.071Z,8.35
2023-05-18T13:45:45.178Z,6.40
2023-05-18T13:48:35.812Z,12.98
2023-05-18T13:51:23.131Z,8.93
2023-05-18T13:54:10.413Z,12.98
2023-05-18T13:56:57.683Z,12.27
2023-05-18T13:59:48.609Z,9.45
2023-05-18T14:02:36.711Z,9.93
2023-05-18T14:05:24.704Z,7.00
2023-05-18T14:08:12.231Z,9.65
2023-05-18T14:11:03.191Z,6.90
2023-05-18T14:13:54.188Z,7.88
2023-05-18T14:16:46.043Z,9.38
2023-05-18T14:19:36.575Z,7.45
2023-05-18T14:22:26.435Z,7.55
2023-05-18T14:25:18.465Z,9.90
2023-05-18T14:28:05.994Z,8.15
2023-05-18T14:30:53.334Z,6.30
2023-05-18T14:33:41.748Z,8.95
2023-05-18T14:36:29.421Z,5.25
2023-05-18T14:39:17.371Z,8.07
2023-05-18T14:42:06.484Z,9.30
2023-05-18T14:44:56.836Z,7.78
2023-05-18T14:47:54.370Z,10.20
2023-05-18T14:50:41.733Z,11.82
2023-05-18T14:53:31.712Z,7.93
2023-05-18T14:56:20.059Z,6.85
2023-05-18T14:59:09.202Z,12.57
2023-05-18T15:01:59.334Z,11.15
2023-05-18T15:04:52.705Z,10.82
2023-05-18T15:07:41.354Z,8.85
2023-05-18T15:10:28.811Z,8.60
2023-05-18T15:13:19.833Z,9.52
2023-05-18T15:16:10.309Z,12.38
2023-05-18T15:18:57.966Z,10.05
2023-05-18T15:21:46.732Z,8.73
2023-05-18T15:27:49.757Z,11.15
2023-05-18T15:30:37.241Z,8.88
2023-05-18T15:33:24.756Z,12.93
2023-05-18T15:36:15.108Z,10.20
2023-05-18T15:39:09.430Z,8.30
2023-05-18T15:42:02.996Z,11.88
2023-05-18T15:44:51.811Z,9.32
2023-05-18T15:47:39.399Z,14.77
2023-05-18T15:50:30.166Z,10.85
2023-05-18T15:53:17.572Z,12.88
2023-05-18T15:56:05.530Z,10.30
2023-05-18T15:58:52.785Z,6.60
2023-05-18T16:01:40.267Z,5.82
2023-05-18T16:04:28.088Z,12.57
2023-05-18T16:07:15.568Z,9.57
2023-05-18T16:10:02.975Z,6.10
2023-05-18T16:12:50.250Z,7.03
2023-05-18T16:15:37.603Z,12.93
2023-05-18T16:18:25.029Z,9.90
2023-05-18T16:21:12.397Z,7.63
2023-05-18T16:24:00.254Z,10.20
2023-05-18T16:26:47.500Z,12.35
2023-05-18T16:29:35.317Z,11.02
2023-05-18T16:32:22.710Z,10.05
2023-05-18T16:35:18.665Z,8.52
2023-05-18T16:38:25.649Z,10.82
2023-05-18T16:41:15.192Z,9.02
2023-05-18T16:44:02.611Z,14.07
2023-05-18T16:46:50.217Z,9.00
2023-05-18T16:49:38.914Z,10.80
2023-05-18T16:52:26.365Z,8.25
2023-05-18T16:55:18.799Z,10.55
2023-05-18T16:58:07.126Z,10.38
2023-05-18T17:00:56.954Z,11.63
2023-05-18T17:03:46.994Z,6.53
2023-05-18T17:06:35.793Z,8.85
2023-05-18T17:09:23.267Z,14.65
2023-05-18T17:12:13.047Z,9.20
2023-05-18T17:15:02.945Z,8.23
2023-05-18T17:17:53.434Z,9.70
2023-05-18T17:20:40.954Z,7.65
2023-05-18T17:23:28.586Z,14.55
2023-05-18T17:26:16.338Z,7.43
2023-05-18T17:29:06.494Z,9.50
2023-05-18T17:32:12.475Z,8.50
2023-05-18T17:35:00.182Z,11.63
2023-05-18T17:37:48.952Z,8.13
2023-05-18T17:40:39.168Z,7.85
2023-05-18T17:43:26.993Z,8.52
2023-05-18T17:46:15.926Z,14.50
2023-05-18T17:49:07.231Z,10.80
2023-05-18T17:51:57.230Z,9.98
2023-05-18T17:54:45.484Z,8.88
2023-05-18T17:57:34.432Z,10.85
2023-05-18T18:00:29.165Z,12.65
2023-05-18T18:03:34.349Z,11.02
2023-05-18T18:06:25.781Z,14.23
2023-05-18T18:09:14.945Z,11.52
2023-05-18T18:12:03.813Z,10.05
2023-05-18T18:14:51.288Z,10.73
2023-05-18T18:17:38.752Z,13.90
2023-05-18T18:20:26.637Z,8.27
2023-05-18T18:23:15.804Z,12.80
2023-05-18T18:29:15.890Z,10.48
2023-05-18T18:32:03.752Z,11.93
2023-05-18T18:34:52.225Z,10.50
2023-05-18T18:37:42.997Z,10.98
2023-05-18T18:40:31.465Z,13.00
2023-05-18T18:43:22.275Z,10.18
2023-05-18T18:46:09.943Z,8.50
2023-05-18T18:48:57.776Z,13.18
2023-05-18T18:51:48.415Z,12.85
2023-05-18T18:54:48.718Z,11.38
2023-05-18T19:00:44.917Z,13.77
2023-05-18T19:03:34.632Z,8.02
2023-05-18T19:06:25.717Z,12.95
2023-05-18T19:09:14.616Z,11.45
2023-05-18T19:12:04.864Z,9.32
2023-05-18T19:14:52.791Z,10.57
2023-05-18T19:18:03.288Z,10.15
2023-05-18T19:20:51.185Z,14.23
2023-05-18T19:23:39.442Z,12.18
2023-05-18T19:26:30.516Z,13.52
2023-05-18T19:29:19.071Z,15.20
2023-05-18T19:32:07.362Z,10.52
2023-05-18T19:34:55.308Z,10.50
2023-05-18T19:37:45.534Z,13.90
2023-05-18T19:40:33.028Z,9.63
2023-05-18T19:43:23.070Z,11.13
2023-05-18T19:46:12.826Z,14.07
2023-05-18T19:49:00.481Z,9.95
2023-05-18T19:51:48.582Z,8.70
2023-05-18T19:54:36.991Z,12.63
2023-05-18T19:57:26.826Z,14.55
2023-05-18T20:00:14.960Z,10.40
2023-05-18T20:03:03.982Z,13.13
2023-05-18T20:05:51.861Z,12.60
2023-05-18T20:08:39.754Z,10.77
2023-05-18T20:11:27.388Z,11.50
2023-05-18T20:14:15.758Z,9.20
2023-05-18T20:17:03.784Z,11.95
2023-05-18T20:19:51.442Z,12.30
2023-05-18T20:22:41.886Z,10.23
2023-05-18T20:25:35.381Z,12.13
2023-05-18T20:28:22.971Z,11.68
2023-05-18T20:31:10.836Z,13.65
2023-05-18T20:34:00.798Z,10.50
2023-05-18T20:36:48.384Z,13.10
2023-05-18T20:39:37.857Z,14.50
2023-05-18T20:42:31.287Z,16.38
2023-05-18T20:45:21.887Z,11.95
2023-05-18T20:48:12.424Z,17.85
2023-05-18T20:51:04.611Z,17.10
2023-05-18T20:53:54.678Z,10.77
2023-05-18T20:56:42.228Z,10.40
2023-05-18T20:59:29.694Z,11.70
2023-05-18T21:02:17.204Z,10.25
2023-05-18T21:05:05.811Z,12.82
2023-05-18T21:07:53.774Z,11.23
2023-05-18T21:10:41.176Z,15.10
2023-05-18T21:13:31.100Z,13.23
2023-05-18T21:16:18.763Z,15.02
2023-05-18T21:19:06.399Z,16.13
2023-05-18T21:21:53.872Z,16.45
2023-05-18T21:24:41.292Z,11.38
2023-05-18T21:27:28.806Z,11.80
2023-05-18T21:30:19.108Z,14.00
2023-05-18T21:33:06.720Z,12.48
2023-05-18T21:35:57.836Z,10.45
2023-05-18T21:38:45.183Z,11.93
2023-05-18T21:41:33.475Z,11.57
2023-05-18T21:44:23.050Z,8.73
2023-05-18T21:47:10.487Z,9.48
2023-05-18T21:50:00.062Z,14.73
2023-05-18T21:52:51.259Z,11.50
2023-05-18T21:55:38.650Z,9.65
2023-05-18T21:58:28.333Z,9.07
2023-05-18T22:01:19.850Z,11.73
2023-05-18T22:04:07.332Z,14.15
2023-05-18T22:06:54.803Z,15.07
2023-05-18T22:09:42.153Z,11.80
2023-05-18T22:12:31.804Z,13.60
2023-05-18T22:15:22.480Z,10.75
2023-05-18T22:18:11.770Z,12.27
2023-05-18T22:21:01.624Z,8.13
2023-05-18T22:23:51.068Z,7.68
2023-05-18T22:26:38.447Z,10.95
2023-05-18T22:29:26.423Z,12.68
2023-05-18T22:32:19.575Z,12.18
2023-05-18T22:35:10.053Z,14.38
2023-05-18T22:37:57.454Z,11.93
2023-05-18T22:40:45.620Z,16.55
2023-05-18T22:43:33.079Z,14.05
2023-05-18T22:46:20.496Z,12.57
2023-05-18T22:49:08.398Z,7.82
2023-05-18T22:51:55.724Z,12.00
2023-05-18T22:54:43.085Z,8.75
2023-05-18T22:57:35.063Z,13.48
2023-05-18T23:00:22.449Z,13.00
2023-05-18T23:03:10.049Z,10.80
2023-05-18T23:05:57.756Z,10.45
2023-05-18T23:08:45.090Z,14.13
2023-05-18T23:11:35.144Z,10.55
2023-05-18T23:14:24.325Z,6.70
2023-05-18T23:17:12.599Z,14.35
2023-05-18T23:20:06.815Z,13.52
2023-05-18T23:22:56.640Z,15.13
2023-05-18T23:25:44.037Z,13.70
2023-05-18T23:28:31.476Z,11.63
2023-05-18T23:31:19.082Z,15.80
2023-05-18T23:34:06.786Z,14.80
2023-05-18T23:36:54.690Z,8.80
2023-05-18T23:39:43.796Z,11.68
2023-05-18T23:42:31.585Z,10.18
2023-05-18T23:45:21.606Z,11.60
2023-05-18T23:48:09.710Z,12.27
2023-05-18T23:51:08.149Z,11.63
2023-05-18T23:53:56.361Z,8.57
2023-05-18T23:56:46.332Z,13.52
2023-05-18T23:59:34.056Z,15.82
